Terminal Aerodrome Forecast
Issued by NWS Twin Cities, MN

Home | Current Version | Previous Version | Graphics & Text | Print | Product List | Glossary On
Versions: 1 2 3 4 5 6 7 8 9 10 11 12 13 14 15
320
FTUS43 KMPX 201933 AAA
TAFSTC
TAF AMD
KSTC 201933Z 2020/2118 34012KT P6SM VCSH BKN025
     FM210000 33005KT P6SM BKN035
     FM210500 33005KT P6SM SCT030
     FM211400 33004KT P6SM SKC=

USA.gov is the U.S. government's official web portal to all federal, state and local government web resources and services.